createdAt,value
2018-04-09T00:02:03.369Z,5.47
2018-04-09T00:04:30.890Z,5.70
2018-04-09T00:06:59.204Z,5.33
2018-04-09T00:09:26.725Z,5.90
2018-04-09T00:11:55.041Z,5.40
2018-04-09T00:14:22.586Z,5.80
2018-04-09T00:16:50.134Z,6.87
2018-04-09T00:19:18.422Z,5.10
2018-04-09T00:21:45.971Z,5.33
2018-04-09T00:24:14.261Z,6.00
2018-04-09T00:26:41.805Z,5.80
2018-04-09T00:29:10.091Z,6.13
2018-04-09T00:31:37.643Z,6.60
2018-04-09T00:34:05.933Z,6.17
2018-04-09T00:36:33.487Z,7.30
2018-04-09T00:39:01.019Z,7.97
2018-04-09T00:41:28.570Z,7.10
2018-04-09T00:43:56.098Z,6.30
2018-04-09T00:46:23.637Z,6.50
2018-04-09T00:48:51.166Z,7.00
2018-04-09T00:51:19.486Z,7.03
2018-04-09T00:53:58.804Z,6.47
2018-04-09T00:56:26.354Z,7.67
2018-04-09T00:58:54.641Z,6.47
2018-04-09T01:01:22.197Z,7.00
2018-04-09T01:03:49.724Z,7.50
2018-04-09T01:06:17.266Z,6.40
2018-04-09T01:08:44.787Z,6.47
2018-04-09T01:11:12.306Z,6.93
2018-04-09T01:13:39.850Z,6.70
2018-04-09T01:16:07.371Z,6.60
2018-04-09T01:18:34.913Z,6.67
2018-04-09T01:21:02.438Z,7.10
2018-04-09T01:23:29.989Z,7.23
2018-04-09T01:25:57.513Z,7.27
2018-04-09T01:28:25.062Z,7.00
2018-04-09T01:30:52.585Z,6.93
2018-04-09T01:33:20.898Z,6.77
2018-04-09T01:35:48.417Z,7.47
2018-04-09T01:38:15.957Z,6.83
2018-04-09T01:40:43.475Z,7.10
2018-04-09T01:43:11.017Z,6.87
2018-04-09T01:45:38.553Z,7.33
2018-04-09T01:48:06.111Z,6.77
2018-04-09T01:50:33.637Z,6.80
2018-04-09T01:53:01.192Z,6.13
2018-04-09T01:55:28.717Z,6.70
2018-04-09T01:57:56.269Z,6.10
2018-04-09T02:00:24.562Z,7.57
2018-04-09T02:02:52.110Z,7.43
2018-04-09T02:05:20.413Z,8.27
2018-04-09T02:07:47.966Z,7.90
2018-04-09T02:10:15.488Z,7.10
2018-04-09T02:12:43.048Z,8.40
2018-04-09T02:15:10.573Z,7.33
2018-04-09T02:17:38.119Z,7.10
2018-04-09T02:20:05.646Z,7.10
2018-04-09T02:22:33.965Z,7.60
2018-04-09T02:25:01.488Z,6.87
2018-04-09T02:27:29.033Z,5.93
2018-04-09T02:29:57.322Z,7.10
2018-04-09T02:32:25.637Z,7.20
2018-04-09T02:34:53.157Z,7.13
2018-04-09T02:37:21.474Z,7.57
2018-04-09T02:39:48.993Z,7.07
2018-04-09T02:42:17.312Z,7.57
2018-04-09T02:44:44.842Z,7.93
2018-04-09T02:47:12.391Z,7.40
2018-04-09T02:49:40.678Z,7.10
2018-04-09T02:52:08.229Z,8.67
2018-04-09T02:54:36.514Z,6.93
2018-04-09T02:57:04.087Z,6.97
2018-04-09T02:59:31.606Z,7.20
2018-04-09T03:01:59.921Z,7.40
2018-04-09T03:04:27.442Z,7.50
2018-04-09T03:06:54.995Z,7.90
2018-04-09T03:09:22.570Z,6.87
2018-04-09T03:11:50.353Z,7.40
2018-04-09T03:14:17.890Z,7.67
2018-04-09T03:16:46.179Z,7.43
2018-04-09T03:19:14.505Z,7.33
2018-04-09T03:21:42.045Z,7.30
2018-04-09T03:24:09.594Z,7.33
2018-04-09T03:26:37.114Z,7.60
2018-04-09T03:29:04.684Z,7.50
2018-04-09T03:31:32.984Z,7.17
2018-04-09T03:34:00.554Z,6.83
2018-04-09T03:36:28.086Z,7.23
2018-04-09T03:38:56.402Z,7.67
2018-04-09T03:41:23.934Z,7.80
2018-04-09T03:43:52.259Z,7.27
2018-04-09T03:46:19.778Z,8.07
2018-04-09T03:48:47.322Z,8.70
2018-04-09T03:51:15.618Z,7.93
2018-04-09T03:53:43.170Z,8.83
2018-04-09T03:56:11.454Z,7.83
2018-04-09T03:58:38.997Z,8.50
2018-04-09T04:01:07.310Z,9.03
2018-04-09T04:03:34.857Z,7.70
2018-04-09T04:06:02.382Z,8.40
2018-04-09T04:08:29.935Z,7.10
2018-04-09T04:10:57.462Z,8.87
2018-04-09T04:13:25.007Z,8.17
2018-04-09T04:16:04.399Z,8.13
2018-04-09T04:18:44.421Z,8.43
2018-04-09T04:21:23.816Z,8.33
2018-04-09T04:23:51.374Z,8.20
2018-04-09T04:26:18.913Z,8.10
2018-04-09T04:28:47.234Z,8.67
2018-04-09T04:31:14.766Z,7.50
2018-04-09T04:33:43.081Z,7.80
2018-04-09T04:36:10.607Z,8.90
2018-04-09T04:38:38.169Z,9.63
2018-04-09T04:41:05.706Z,8.80
2018-04-09T04:43:34.024Z,8.40
2018-04-09T04:46:01.547Z,9.00
2018-04-09T04:48:29.872Z,8.70
2018-04-09T04:50:57.397Z,8.50
2018-04-09T04:53:24.946Z,9.30
2018-04-09T04:55:53.237Z,8.80
2018-04-09T04:58:20.787Z,8.83
2018-04-09T05:00:49.096Z,8.60
2018-04-09T05:03:16.655Z,9.40
2018-04-09T05:05:44.178Z,9.10
2018-04-09T05:08:12.493Z,8.80
2018-04-09T05:10:40.018Z,8.60
2018-04-09T05:13:08.334Z,9.40
2018-04-09T05:15:35.859Z,9.83
2018-04-09T05:18:04.175Z,8.07
2018-04-09T05:20:31.706Z,8.60
2018-04-09T05:22:59.266Z,9.07
2018-04-09T05:25:26.795Z,8.40
2018-04-09T05:27:54.362Z,9.80
2018-04-09T05:30:22.659Z,8.63
2018-04-09T05:32:50.218Z,8.13
2018-04-09T05:35:17.752Z,9.57
2018-04-09T05:37:45.298Z,8.93
2018-04-09T05:40:12.845Z,8.57
2018-04-09T05:42:40.385Z,10.23
2018-04-09T05:45:07.942Z,8.70
2018-04-09T05:47:35.478Z,9.67
2018-04-09T05:50:03.034Z,9.57
2018-04-09T05:52:31.327Z,9.07
2018-04-09T05:54:58.899Z,11.00
2018-04-09T05:57:26.438Z,12.10
2018-04-09T05:59:53.998Z,12.23
2018-04-09T06:02:21.531Z,11.50
2018-04-09T06:04:49.856Z,12.47
2018-04-09T06:07:17.394Z,11.43
2018-04-09T06:09:44.954Z,12.73
2018-04-09T06:12:12.485Z,11.73
2018-04-09T06:14:40.813Z,12.63
2018-04-09T06:17:08.346Z,12.90
2018-04-09T06:19:36.639Z,11.97
2018-04-09T06:22:04.190Z,12.67
2018-04-09T06:24:31.722Z,10.43
2018-04-09T06:26:59.279Z,11.17
2018-04-09T06:51:19.927Z,11.70
2018-04-09T06:53:47.458Z,10.50
2018-04-09T06:56:15.019Z,11.60
2018-04-09T06:58:42.559Z,11.17
2018-04-09T07:01:10.118Z,11.10
2018-04-09T07:03:37.641Z,11.77
2018-04-09T07:06:05.962Z,11.13
2018-04-09T07:08:33.492Z,11.00
2018-04-09T07:11:01.045Z,11.10
2018-04-09T07:13:29.339Z,10.40
2018-04-09T07:15:56.910Z,11.73
2018-04-09T07:18:24.446Z,10.63
2018-04-09T07:20:51.978Z,8.97
2018-04-09T07:23:19.522Z,9.97
2018-04-09T07:25:47.053Z,10.13
2018-04-09T07:28:14.598Z,10.20
2018-04-09T07:30:42.126Z,9.30
2018-04-09T07:33:10.443Z,9.50
2018-04-09T07:35:37.978Z,9.30
2018-04-09T07:38:06.295Z,9.80
2018-04-09T07:40:33.818Z,10.07
2018-04-09T07:43:02.130Z,9.00
2018-04-09T07:45:29.659Z,8.93
2018-04-09T07:47:57.206Z,10.10
2018-04-09T07:50:25.494Z,10.30
2018-04-09T07:52:53.033Z,9.80
2018-04-09T07:55:21.330Z,10.90
2018-04-09T07:57:49.648Z,10.53
2018-04-09T08:00:17.186Z,10.60
2018-04-09T08:02:44.742Z,11.30
2018-04-09T08:05:12.266Z,11.20
2018-04-09T08:07:40.570Z,11.70
2018-04-09T08:10:08.126Z,11.90
2018-04-09T08:12:35.657Z,11.53
2018-04-09T08:15:03.246Z,12.57
2018-04-09T08:17:30.774Z,10.67
2018-04-09T08:19:58.341Z,11.63
2018-04-09T08:22:26.646Z,10.83
2018-04-09T08:24:54.205Z,10.20
2018-04-09T08:27:21.733Z,12.20
2018-04-09T08:29:49.295Z,10.03
2018-04-09T08:32:16.817Z,11.30
2018-04-09T08:34:44.362Z,11.80
2018-04-09T08:37:11.890Z,10.43
2018-04-09T08:39:40.216Z,11.87
2018-04-09T08:42:07.745Z,11.17
2018-04-09T08:44:35.293Z,10.77
2018-04-09T08:47:03.583Z,10.67
2018-04-09T08:49:31.133Z,10.10
2018-04-09T08:51:58.667Z,11.13
2018-04-09T08:54:26.222Z,10.87
2018-04-09T08:56:53.758Z,10.17
2018-04-09T08:59:22.095Z,10.70
2018-04-09T09:01:49.617Z,11.50
2018-04-09T09:04:17.174Z,11.27
2018-04-09T09:06:44.706Z,10.33
2018-04-09T09:09:12.266Z,10.83
2018-04-09T09:11:39.790Z,10.00
2018-04-09T09:14:07.350Z,10.50
2018-04-09T09:16:34.879Z,11.00
2018-04-09T09:19:02.439Z,11.40
2018-04-09T09:21:30.743Z,10.87
2018-04-09T09:23:59.065Z,10.40
2018-04-09T09:26:26.600Z,11.80
2018-04-09T09:28:54.146Z,12.07
2018-04-09T09:31:21.670Z,10.90
2018-04-09T09:33:49.222Z,10.30
2018-04-09T09:36:16.755Z,9.80
2018-04-09T09:38:44.302Z,10.33
2018-04-09T09:41:11.830Z,11.70
2018-04-09T09:43:40.148Z,11.00
2018-04-09T09:46:07.682Z,11.07
2018-04-09T09:48:35.211Z,11.13
2018-04-09T09:51:02.762Z,11.43
2018-04-09T09:53:30.286Z,10.83
2018-04-09T09:55:57.858Z,10.70
2018-04-09T09:58:25.388Z,10.40
2018-04-09T10:00:52.946Z,10.10
2018-04-09T10:03:26.114Z,11.93
2018-04-09T10:05:54.443Z,11.17
2018-04-09T10:08:21.974Z,10.50
2018-04-09T10:10:49.538Z,12.53
2018-04-09T10:13:17.071Z,11.03
2018-04-09T10:15:45.393Z,10.60
2018-04-09T10:18:12.923Z,11.40
2018-04-09T10:20:40.478Z,10.67
2018-04-09T10:23:08.770Z,11.17
2018-04-09T10:25:36.334Z,12.17
2018-04-09T10:28:03.870Z,11.03
2018-04-09T10:30:31.433Z,11.30
2018-04-09T10:32:59.726Z,10.90
2018-04-09T10:35:27.279Z,11.20
2018-04-09T10:37:54.803Z,10.37
2018-04-09T10:40:22.362Z,10.27
2018-04-09T10:42:49.891Z,11.90
2018-04-09T10:45:17.449Z,12.90
2018-04-09T10:47:44.975Z,11.63
2018-04-09T10:50:12.538Z,11.90
2018-04-09T10:52:40.067Z,11.57
2018-04-09T10:55:08.391Z,13.07
2018-04-09T10:57:35.918Z,11.60
2018-04-09T11:03:10.522Z,12.17
2018-04-09T11:05:38.077Z,12.37
2018-04-09T11:08:05.618Z,11.83
2018-04-09T11:10:33.194Z,11.17
2018-04-09T11:13:00.736Z,12.30
2018-04-09T11:15:28.295Z,13.03
2018-04-09T11:17:55.823Z,13.20
2018-04-09T11:20:24.143Z,12.47
2018-04-09T11:22:51.701Z,11.83
2018-04-09T11:25:19.300Z,12.03
2018-04-09T11:27:46.803Z,11.63
2018-04-09T11:30:14.353Z,10.27
2018-04-09T11:32:41.878Z,11.50
2018-04-09T11:35:09.425Z,11.97
2018-04-09T11:37:37.748Z,11.07
2018-04-09T11:40:06.068Z,12.37
2018-04-09T11:42:33.588Z,11.53
2018-04-09T11:45:01.140Z,11.70
2018-04-09T11:47:29.432Z,10.53
2018-04-09T11:49:56.989Z,11.27
2018-04-09T11:52:24.516Z,10.60
2018-04-09T11:54:52.060Z,9.63
2018-04-09T11:57:19.594Z,10.47
2018-04-09T11:59:47.152Z,11.53
2018-04-09T12:02:14.722Z,10.20
2018-04-09T12:04:42.257Z,10.90
2018-04-09T12:07:09.780Z,11.03
2018-04-09T12:09:37.336Z,11.60
2018-04-09T12:12:04.872Z,10.20
2018-04-09T12:14:32.425Z,10.27
2018-04-09T12:16:59.944Z,10.60
2018-04-09T12:19:27.487Z,11.00
2018-04-09T12:21:55.781Z,11.07
2018-04-09T12:24:23.341Z,11.63
2018-04-09T12:26:50.876Z,11.10
2018-04-09T12:29:19.200Z,10.30
2018-04-09T12:31:46.737Z,11.77
2018-04-09T12:34:14.297Z,10.23
2018-04-09T12:36:41.868Z,11.67
2018-04-09T12:39:09.401Z,11.13
2018-04-09T12:41:37.720Z,11.73
2018-04-09T12:44:05.253Z,11.70
2018-04-09T12:46:32.809Z,11.00
2018-04-09T12:49:01.096Z,10.50
2018-04-09T12:51:28.649Z,12.07
2018-04-09T12:53:56.940Z,11.40
2018-04-09T12:56:24.488Z,11.93
2018-04-09T12:58:52.017Z,11.10
2018-04-09T13:01:20.348Z,10.43
2018-04-09T13:03:47.877Z,10.17
2018-04-09T13:06:16.192Z,9.00
2018-04-09T13:08:43.723Z,13.07
2018-04-09T13:11:11.285Z,10.17
2018-04-09T13:13:38.816Z,12.40
2018-04-09T13:16:07.136Z,8.90
2018-04-09T13:18:34.664Z,9.67
2018-04-09T13:21:02.993Z,9.60
2018-04-09T13:23:30.533Z,9.47
2018-04-09T13:25:58.079Z,10.60
2018-04-09T13:28:25.612Z,9.27
2018-04-09T13:30:53.924Z,8.80
2018-04-09T13:33:21.443Z,9.87
2018-04-09T13:35:49.766Z,9.60
2018-04-09T13:38:17.291Z,9.57
2018-04-09T13:40:45.602Z,9.97
2018-04-09T13:43:13.127Z,9.70
2018-04-09T13:45:41.445Z,9.20
2018-04-09T13:48:08.973Z,10.00
2018-04-09T13:50:37.294Z,9.20
2018-04-09T13:53:04.811Z,10.60
2018-04-09T13:55:33.132Z,10.73
2018-04-09T13:58:00.651Z,9.30
2018-04-09T14:00:28.203Z,9.77
2018-04-09T14:02:56.495Z,11.00
2018-04-09T14:05:24.047Z,9.53
2018-04-09T14:07:51.580Z,10.67
2018-04-09T14:10:19.141Z,11.00
2018-04-09T14:12:46.663Z,9.03
2018-04-09T14:15:14.212Z,9.43
2018-04-09T14:17:41.744Z,10.17
2018-04-09T14:20:09.292Z,9.60
2018-04-09T14:22:37.604Z,12.27
2018-04-09T14:25:05.156Z,11.10
2018-04-09T14:27:32.691Z,11.97
2018-04-09T14:30:01.008Z,12.10
2018-04-09T14:32:28.548Z,12.43
2018-04-09T14:34:56.113Z,12.10
2018-04-09T14:37:23.648Z,11.97
2018-04-09T14:39:51.982Z,11.27
2018-04-09T14:42:19.500Z,13.43
2018-04-09T14:44:47.060Z,11.90
2018-04-09T14:47:14.696Z,12.10
2018-04-09T14:49:42.222Z,12.03
2018-04-09T14:52:09.806Z,12.03
2018-04-09T14:54:38.243Z,11.90
2018-04-09T14:57:05.802Z,11.57
2018-04-09T14:59:33.329Z,12.07
2018-04-09T15:02:01.696Z,11.70
2018-04-09T15:04:29.991Z,12.00
2018-04-09T15:06:58.311Z,12.83
2018-04-09T15:09:25.850Z,11.90
2018-04-09T15:11:53.404Z,14.20
2018-04-09T15:14:20.932Z,13.10
2018-04-09T15:16:49.256Z,13.10
2018-04-09T15:19:16.817Z,15.47
2018-04-09T15:21:44.368Z,12.87
2018-04-09T15:24:11.894Z,13.37
2018-04-09T15:26:40.216Z,13.13
2018-04-09T15:29:07.752Z,13.40
2018-04-09T15:31:35.304Z,13.00
2018-04-09T15:34:03.601Z,12.20
2018-04-09T15:36:31.157Z,12.97
2018-04-09T15:38:58.685Z,13.83
2018-04-09T15:41:27.013Z,13.10
2018-04-09T15:43:54.545Z,13.83
2018-04-09T15:46:22.100Z,13.70
2018-04-09T15:48:50.396Z,12.33
2018-04-09T15:51:17.939Z,12.80
2018-04-09T15:53:45.468Z,12.83
2018-04-09T15:56:13.031Z,14.33
2018-04-09T15:58:40.562Z,13.37
2018-04-09T16:01:08.117Z,13.63
2018-04-09T16:03:35.711Z,14.73
2018-04-09T16:06:04.037Z,14.43
2018-04-09T16:08:31.581Z,14.63
2018-04-09T16:10:59.140Z,14.87
2018-04-09T16:13:26.667Z,13.93
2018-04-09T16:15:54.228Z,15.03
2018-04-09T16:18:21.804Z,13.60
2018-04-09T16:20:49.321Z,14.10
2018-04-09T16:23:16.876Z,15.63
2018-04-09T16:25:44.415Z,14.87
2018-04-09T16:28:11.971Z,16.17
2018-04-09T16:30:39.504Z,19.27
2018-04-09T16:33:07.823Z,19.97
2018-04-09T16:35:35.348Z,18.20
2018-04-09T16:38:03.673Z,17.30
2018-04-09T16:40:31.204Z,18.33
2018-04-09T16:42:58.757Z,18.40
2018-04-09T16:45:26.280Z,18.37
2018-04-09T16:47:53.839Z,18.70
2018-04-09T16:50:21.373Z,19.23
2018-04-09T16:52:48.925Z,16.83
2018-04-09T16:55:16.456Z,18.83
2018-04-09T16:57:44.004Z,18.17
2018-04-09T17:00:11.538Z,19.70
2018-04-09T17:02:39.864Z,18.60
2018-04-09T17:05:07.403Z,16.83
2018-04-09T17:07:34.932Z,18.83
2018-04-09T17:10:02.487Z,17.67
2018-04-09T17:12:30.020Z,18.43
2018-04-09T17:14:57.576Z,16.50
2018-04-09T17:17:25.103Z,16.60
2018-04-09T17:19:52.686Z,17.50
2018-04-09T17:22:20.212Z,17.67
2018-04-09T17:24:48.531Z,17.53
2018-04-09T17:27:16.052Z,17.30
2018-04-09T17:29:44.373Z,18.73
2018-04-09T17:32:11.899Z,18.60
2018-04-09T17:34:39.458Z,18.20
2018-04-09T17:37:06.988Z,17.40
2018-04-09T17:39:34.540Z,20.40
2018-04-09T17:42:02.068Z,18.73
2018-04-09T17:44:29.631Z,19.57
2018-04-09T17:46:57.159Z,18.57
2018-04-09T17:49:24.710Z,18.23
2018-04-09T17:51:52.248Z,19.00
2018-04-09T17:54:20.570Z,19.47
2018-04-09T17:56:48.100Z,18.10
2018-04-09T17:59:16.428Z,20.00
2018-04-09T18:01:43.956Z,19.80
2018-04-09T18:04:11.484Z,20.80
2018-04-09T18:06:39.833Z,19.73
2018-04-09T18:09:07.435Z,19.77
2018-04-09T18:11:35.763Z,21.20
2018-04-09T18:14:03.309Z,20.83
2018-04-09T18:16:30.864Z,19.40
2018-04-09T18:18:58.392Z,20.93
2018-04-09T18:21:26.721Z,19.17
2018-04-09T18:23:54.252Z,19.30
2018-04-09T18:26:21.804Z,21.47
2018-04-09T18:28:49.332Z,19.97
2018-04-09T18:31:16.889Z,20.07
2018-04-09T18:33:44.420Z,19.97
2018-04-09T18:36:11.972Z,20.27
2018-04-09T18:38:39.505Z,19.40
2018-04-09T18:41:07.062Z,18.60
2018-04-09T18:43:34.600Z,17.93
2018-04-09T18:46:02.926Z,18.93
2018-04-09T18:48:30.461Z,19.33
2018-04-09T18:50:58.018Z,18.60
2018-04-09T18:53:25.549Z,17.33
2018-04-09T18:55:53.875Z,16.67
2018-04-09T18:58:21.416Z,16.03
2018-04-09T19:00:48.969Z,17.17
2018-04-09T19:03:16.501Z,16.77
2018-04-09T19:05:44.833Z,17.50
2018-04-09T19:08:12.364Z,14.30
2018-04-09T19:10:39.897Z,15.27
2018-04-09T19:13:07.452Z,14.80
2018-04-09T19:15:34.984Z,14.83
2018-04-09T19:18:02.539Z,14.50
2018-04-09T19:20:30.069Z,13.80
2018-04-09T19:22:57.624Z,13.57
2018-04-09T19:25:25.157Z,13.70
2018-04-09T19:27:52.713Z,12.90
2018-04-09T19:30:20.240Z,12.87
2018-04-09T19:32:47.788Z,11.10
2018-04-09T19:35:15.318Z,11.57
2018-04-09T19:37:49.420Z,11.60
2018-04-09T19:40:23.521Z,10.80
2018-04-09T19:42:51.085Z,10.07
2018-04-09T19:45:19.390Z,9.67
2018-04-09T19:47:46.954Z,10.13
2018-04-09T19:50:14.479Z,10.10
2018-04-09T19:52:42.036Z,8.77
2018-04-09T19:55:09.565Z,9.60
2018-04-09T19:57:37.125Z,10.50
2018-04-09T20:00:04.644Z,9.90
2018-04-09T20:02:32.961Z,10.50
2018-04-09T20:05:00.495Z,9.93
2018-04-09T20:07:28.052Z,9.30
2018-04-09T20:09:55.584Z,9.80
2018-04-09T20:12:23.903Z,9.87
2018-04-09T20:14:51.446Z,10.70
2018-04-09T20:17:18.995Z,9.73
2018-04-09T20:19:46.536Z,10.60
2018-04-09T20:22:14.864Z,10.70
2018-04-09T20:24:42.392Z,11.00
2018-04-09T20:27:10.700Z,10.00
2018-04-09T20:29:38.241Z,10.77
2018-04-09T20:32:05.796Z,10.17
2018-04-09T20:34:33.328Z,9.00
2018-04-09T20:37:00.879Z,9.60
2018-04-09T20:39:28.438Z,10.77
2018-04-09T20:41:55.996Z,10.50
2018-04-09T20:44:23.527Z,10.60
2018-04-09T20:46:51.080Z,9.30
2018-04-09T20:49:18.604Z,9.57
2018-04-09T20:51:46.923Z,9.20
2018-04-09T20:54:14.446Z,9.07
2018-04-09T20:56:42.005Z,10.20
2018-04-09T20:59:10.297Z,9.60
2018-04-09T21:01:37.852Z,10.60
2018-04-09T21:04:05.438Z,9.97
2018-04-09T21:06:32.984Z,9.77
2018-04-09T21:09:00.515Z,8.83
2018-04-09T21:11:28.877Z,9.20
2018-04-09T21:13:56.386Z,10.77
2018-04-09T21:16:23.947Z,9.87
2018-04-09T21:18:51.486Z,8.97
2018-04-09T21:21:19.017Z,9.50
2018-04-09T21:23:47.348Z,9.00
2018-04-09T21:26:14.877Z,8.77
2018-04-09T21:28:42.433Z,9.87
2018-04-09T21:31:10.724Z,8.20
2018-04-09T21:33:38.273Z,9.37
2018-04-09T21:36:05.805Z,9.10
2018-04-09T21:38:33.356Z,9.53
2018-04-09T21:41:00.880Z,9.17
2018-04-09T21:43:28.432Z,9.57
2018-04-09T21:45:55.956Z,9.77
2018-04-09T21:48:24.272Z,9.70
2018-04-09T21:50:51.800Z,9.17
2018-04-09T21:53:20.125Z,10.40
2018-04-09T21:55:47.648Z,11.30
2018-04-09T21:58:15.204Z,10.37
2018-04-09T22:00:42.736Z,10.80
2018-04-09T22:03:10.292Z,10.93
2018-04-09T22:05:37.820Z,11.03
2018-04-09T22:08:05.372Z,10.90
2018-04-09T22:13:06.952Z,10.40
2018-04-09T22:15:34.500Z,10.50
2018-04-09T22:18:02.053Z,9.77
2018-04-09T22:20:29.580Z,10.67
2018-04-09T22:22:57.909Z,10.10
2018-04-09T22:25:25.440Z,10.90
2018-04-09T22:27:52.987Z,9.90
2018-04-09T22:30:21.988Z,9.53
2018-04-09T22:32:49.589Z,10.53
2018-04-09T22:35:17.100Z,10.57
2018-04-09T22:37:44.660Z,10.80
2018-04-09T22:40:12.193Z,10.50
2018-04-09T22:42:39.739Z,10.13
2018-04-09T22:45:07.264Z,10.70
2018-04-09T22:47:34.810Z,10.10
2018-04-09T22:50:02.333Z,9.80
2018-04-09T22:52:30.660Z,10.00
2018-04-09T22:54:58.193Z,9.37
2018-04-09T22:57:26.515Z,11.13
2018-04-09T22:59:54.036Z,9.90
2018-04-09T23:02:21.592Z,10.43
2018-04-09T23:04:49.125Z,10.73
2018-04-09T23:07:16.689Z,10.93
2018-04-09T23:09:44.211Z,9.67
2018-04-09T23:12:11.764Z,9.70
2018-04-09T23:14:39.288Z,11.03
2018-04-09T23:17:07.617Z,10.30
2018-04-09T23:19:35.150Z,10.20
2018-04-09T23:22:02.700Z,11.50
2018-04-09T23:24:30.227Z,10.60
2018-04-09T23:26:58.553Z,11.37
2018-04-09T23:29:26.071Z,10.10
2018-04-09T23:31:54.390Z,11.37
2018-04-09T23:34:21.917Z,10.60
2018-04-09T23:36:50.212Z,10.30
2018-04-09T23:39:17.760Z,10.57
2018-04-09T23:41:45.292Z,9.70
2018-04-09T23:44:12.848Z,9.50
2018-04-09T23:46:40.377Z,11.30
2018-04-09T23:49:07.932Z,10.80
2018-04-09T23:51:35.464Z,11.20
2018-04-09T23:54:03.019Z,11.53
2018-04-09T23:56:30.553Z,11.40
2018-04-09T23:58:58.108Z,10.27
